FQVL

Details ICAO FQVL (VNX)
Name VILANKULO
Region Mozambique
Timezone Africa/Maputo (UTC+2.0)
Plans Departing 1
Arriving 1
Stats Elevation 46 ft / 14 m (AMSL)
Location -22.017786° 35.313465°
Runways 2
Magnetic Variation 15.378° W
Sunrise 2018-05-21 04:07:01 UTC / 2018-05-21 06:07:01 Local
Sunset 2018-05-21 15:06:29 UTC / 2018-05-21 17:06:29 Local
Advertisement - Login to hide

Runways

ID Width Length Bearing (true) Bearing (mag) Surface Threshold Offset Overrun Length
10 75 ft / 23 m 2,465 ft / 751 m 89.27° 104.65° Asphalt 0 ft / 0 m 0 ft / 0 m
17 98 ft / 30 m 4,842 ft / 1,476 m 155.91° 171.29° Asphalt 0 ft / 0 m 0 ft / 0 m
28 75 ft / 23 m 2,465 ft / 751 m 269.27° 284.65° Asphalt 0 ft / 0 m 0 ft / 0 m
35 98 ft / 30 m 4,842 ft / 1,476 m 335.91° 351.29° Asphalt 0 ft / 0 m 0 ft / 0 m

Map

Weather


0- 5 10 15 20 25 30 35+ Temperature / ° C

Clouds and Precipitation
Forecast for 2018-05-21 06:00 UTC. Updated 23 minutes ago

Ground ~20,000 ft ~40,000 ft Winds

METAR

FQVL 210500Z 27002KT 220V310 2000 RA SCT015 BKN020 22/22 Q1017

TAF

TAF FQVL 202200Z 2100/2200 19005KT 9999 SCT020 PROB30 TEMPO 2101/2105 5000 -RADZ SCT012 BKN020 BECMG 2106/2108 13008KT 9999 BKN020 BECMG 2112/2114 07008KT SCT025 BECMG 2118/2120 VRB04KT TN18/2103Z TX28/2113Z

Frequencies

Tower 118.30 MHz TWR
Warning: Do not use this data for real-world aviation or navigation. No guarantee of current accuracy is given.